createdAt,value
2018-06-28T00:00:53.988Z,18.84
2018-06-28T00:01:53.969Z,18.85
2018-06-28T00:02:53.977Z,18.78
2018-06-28T00:03:53.948Z,18.81
2018-06-28T00:04:53.940Z,18.73
2018-06-28T00:05:53.936Z,18.69
2018-06-28T00:06:53.913Z,18.67
2018-06-28T00:07:53.927Z,18.65
2018-06-28T00:08:53.978Z,18.62
2018-06-28T00:09:53.880Z,18.58
2018-06-28T00:10:53.866Z,18.54
2018-06-28T00:11:53.860Z,18.45
2018-06-28T00:12:53.858Z,18.39
2018-06-28T00:13:53.844Z,18.27
2018-06-28T00:14:53.816Z,18.25
2018-06-28T00:15:53.809Z,18.26
2018-06-28T00:16:53.816Z,18.11
2018-06-28T00:17:53.795Z,18.00
2018-06-28T00:18:53.778Z,18.10
2018-06-28T00:19:53.765Z,17.93
2018-06-28T00:20:53.748Z,17.93
2018-06-28T00:21:53.751Z,17.93
2018-06-28T00:22:53.725Z,17.82
2018-06-28T00:23:53.711Z,17.87
2018-06-28T00:24:53.716Z,17.82
2018-06-28T00:25:53.687Z,17.79
2018-06-28T00:26:53.674Z,17.78
2018-06-28T00:27:53.685Z,17.64
2018-06-28T00:28:53.663Z,17.66
2018-06-28T00:29:53.651Z,17.63
2018-06-28T00:30:53.644Z,17.55
2018-06-28T00:31:53.616Z,17.55
2018-06-28T00:32:53.605Z,17.49
2018-06-28T00:33:53.610Z,17.46
2018-06-28T00:34:53.591Z,17.48
2018-06-28T00:35:53.564Z,17.43
2018-06-28T00:36:53.556Z,17.37
2018-06-28T00:37:53.548Z,17.37
2018-06-28T00:38:53.549Z,17.38
2018-06-28T00:39:53.520Z,17.28
2018-06-28T00:40:53.525Z,17.31
2018-06-28T00:41:53.491Z,17.31
2018-06-28T00:42:53.487Z,17.25
2018-06-28T00:43:53.474Z,17.21
2018-06-28T00:44:53.471Z,17.28
2018-06-28T00:45:53.469Z,17.12
2018-06-28T00:46:53.434Z,17.14
2018-06-28T00:47:53.420Z,17.12
2018-06-28T00:48:53.451Z,17.15
2018-06-28T00:49:53.418Z,17.19
2018-06-28T00:50:53.386Z,17.18
2018-06-28T00:51:53.393Z,17.11
2018-06-28T00:52:53.373Z,17.12
2018-06-28T00:53:53.350Z,17.12
2018-06-28T00:54:53.340Z,17.11
2018-06-28T00:55:53.347Z,17.04
2018-06-28T00:56:53.315Z,17.12
2018-06-28T00:57:53.312Z,17.12
2018-06-28T00:58:53.286Z,17.06
2018-06-28T00:59:53.273Z,17.11
2018-06-28T01:00:53.283Z,17.06
2018-06-28T01:01:53.279Z,17.07
2018-06-28T01:02:53.254Z,17.07
2018-06-28T01:03:53.225Z,17.00
2018-06-28T01:04:53.217Z,16.94
2018-06-28T01:05:53.220Z,16.97
2018-06-28T01:06:53.188Z,16.93
2018-06-28T01:07:53.182Z,16.97
2018-06-28T01:08:53.164Z,16.97
2018-06-28T01:09:53.163Z,16.94
2018-06-28T01:10:53.158Z,16.98
2018-06-28T01:11:53.141Z,16.96
2018-06-28T01:12:53.116Z,16.96
2018-06-28T01:13:53.105Z,17.00
2018-06-28T01:14:53.092Z,16.93
2018-06-28T01:15:53.088Z,17.00
2018-06-28T01:16:53.083Z,17.03
2018-06-28T01:17:53.070Z,16.89
2018-06-28T01:18:53.039Z,16.91
2018-06-28T01:19:53.027Z,16.93
2018-06-28T01:20:53.035Z,16.78
2018-06-28T01:21:53.019Z,16.71
2018-06-28T01:22:53.011Z,16.73
2018-06-28T01:23:52.975Z,16.76
2018-06-28T01:24:52.968Z,16.71
2018-06-28T01:25:52.951Z,16.73
2018-06-28T01:26:52.939Z,16.70
2018-06-28T01:27:52.945Z,16.75
2018-06-28T01:28:52.922Z,16.71
2018-06-28T01:29:52.904Z,16.73
2018-06-28T01:30:52.896Z,16.70
2018-06-28T01:31:52.881Z,16.64
2018-06-28T01:32:52.883Z,16.64
2018-06-28T01:33:52.857Z,16.52
2018-06-28T01:34:52.843Z,16.53
2018-06-28T01:35:52.838Z,16.48
2018-06-28T01:36:52.814Z,16.49
2018-06-28T01:37:52.802Z,16.56
2018-06-28T01:38:52.814Z,16.53
2018-06-28T01:39:52.781Z,16.39
2018-06-28T01:40:52.765Z,16.38
2018-06-28T01:41:52.809Z,16.38
2018-06-28T01:42:52.745Z,16.42
2018-06-28T01:43:52.746Z,16.35
2018-06-28T01:44:52.714Z,16.38
2018-06-28T01:45:52.700Z,16.38
2018-06-28T01:46:52.770Z,16.31
2018-06-28T01:47:52.672Z,16.41
2018-06-28T01:48:52.681Z,16.38
2018-06-28T01:49:52.650Z,16.43
2018-06-28T01:50:52.656Z,16.39
2018-06-28T01:51:52.623Z,16.34
2018-06-28T01:52:52.617Z,16.43
2018-06-28T01:53:52.600Z,16.42
2018-06-28T01:54:52.590Z,16.46
2018-06-28T01:55:52.597Z,16.35
2018-06-28T01:56:52.563Z,16.39
2018-06-28T01:57:52.545Z,16.41
2018-06-28T01:58:52.537Z,16.38
2018-06-28T01:59:52.522Z,16.34
2018-06-28T02:00:52.521Z,16.23
2018-06-28T02:01:52.513Z,16.25
2018-06-28T02:02:52.498Z,16.11
2018-06-28T02:03:52.486Z,16.17
2018-06-28T02:04:52.461Z,16.15
2018-06-28T02:05:52.454Z,16.12
2018-06-28T02:06:52.449Z,16.09
2018-06-28T02:07:52.420Z,16.12
2018-06-28T02:08:52.425Z,16.15
2018-06-28T02:09:52.391Z,16.09
2018-06-28T02:10:52.384Z,16.11
2018-06-28T02:11:52.391Z,16.15
2018-06-28T02:12:52.361Z,16.15
2018-06-28T02:13:52.350Z,16.17
2018-06-28T02:14:52.333Z,16.20
2018-06-28T02:15:52.326Z,16.31
2018-06-28T02:16:52.320Z,16.27
2018-06-28T02:17:52.294Z,16.31
2018-06-28T02:18:52.273Z,16.43
2018-06-28T02:19:52.263Z,16.45
2018-06-28T02:20:52.255Z,16.45
2018-06-28T02:21:52.261Z,16.48
2018-06-28T02:22:52.234Z,16.56
2018-06-28T02:23:52.209Z,16.49
2018-06-28T02:24:52.196Z,16.39
2018-06-28T02:25:52.190Z,16.41
2018-06-28T02:26:52.192Z,16.45
2018-06-28T02:28:13.170Z,16.48
2018-06-28T02:28:52.148Z,16.39
2018-06-28T02:29:52.132Z,16.45
2018-06-28T02:30:52.123Z,16.41
2018-06-28T02:31:52.106Z,16.43
2018-06-28T02:32:52.099Z,16.57
2018-06-28T02:33:52.096Z,16.53
2018-06-28T02:34:52.072Z,16.45
2018-06-28T02:35:52.071Z,16.45
2018-06-28T02:36:52.055Z,16.50
2018-06-28T02:37:52.027Z,16.50
2018-06-28T02:38:52.040Z,16.39
2018-06-28T02:39:52.003Z,16.45
2018-06-28T02:40:52.004Z,16.38
2018-06-28T02:41:51.989Z,16.31
2018-06-28T02:42:51.963Z,16.38
2018-06-28T02:43:51.965Z,16.42
2018-06-28T02:44:51.938Z,16.39
2018-06-28T02:45:51.934Z,16.39
2018-06-28T02:46:51.914Z,16.42
2018-06-28T02:47:51.896Z,16.41
2018-06-28T02:48:51.901Z,16.41
2018-06-28T02:49:51.871Z,16.56
2018-06-28T02:50:51.862Z,16.49
2018-06-28T02:51:51.847Z,16.49
2018-06-28T02:52:51.833Z,16.46
2018-06-28T02:53:51.823Z,16.42
2018-06-28T02:54:51.822Z,16.46
2018-06-28T02:55:51.809Z,16.45
2018-06-28T02:56:51.796Z,16.53
2018-06-28T02:57:51.784Z,16.50
2018-06-28T02:58:51.754Z,16.46
2018-06-28T02:59:51.747Z,16.56
2018-06-28T03:00:51.734Z,16.53
2018-06-28T03:01:51.738Z,16.46
2018-06-28T03:02:51.704Z,16.50
2018-06-28T03:03:51.691Z,16.42
2018-06-28T03:04:51.680Z,16.39
2018-06-28T03:05:51.671Z,16.34
2018-06-28T03:06:51.673Z,16.33
2018-06-28T03:07:51.640Z,16.28
2018-06-28T03:08:51.624Z,16.15
2018-06-28T03:09:51.618Z,16.11
2018-06-28T03:10:51.602Z,16.11
2018-06-28T03:11:51.604Z,15.97
2018-06-28T03:12:51.591Z,15.97
2018-06-28T03:13:51.557Z,15.87
2018-06-28T03:14:51.546Z,15.82
2018-06-28T03:15:51.548Z,15.82
2018-06-28T03:16:51.544Z,15.89
2018-06-28T03:17:51.525Z,15.90
2018-06-28T03:18:51.496Z,15.89
2018-06-28T03:19:51.489Z,15.89
2018-06-28T03:20:51.489Z,15.92
2018-06-28T03:21:51.466Z,15.92
2018-06-28T03:22:51.456Z,16.00
2018-06-28T03:23:51.429Z,16.00
2018-06-28T03:24:51.415Z,16.08
2018-06-28T03:25:51.398Z,16.04
2018-06-28T03:26:51.385Z,16.04
2018-06-28T03:27:51.389Z,16.08
2018-06-28T03:28:51.366Z,16.14
2018-06-28T03:29:51.353Z,16.05
2018-06-28T03:30:51.351Z,16.07
2018-06-28T03:31:51.331Z,16.07
2018-06-28T03:32:51.311Z,16.08
2018-06-28T03:33:51.312Z,15.97
2018-06-28T03:34:51.299Z,15.94
2018-06-28T03:35:51.265Z,15.93
2018-06-28T03:36:51.257Z,15.93
2018-06-28T03:37:51.307Z,15.87
2018-06-28T03:38:51.244Z,15.87
2018-06-28T03:39:51.213Z,15.87
2018-06-28T03:40:51.200Z,15.80
2018-06-28T03:41:51.188Z,15.84
2018-06-28T03:42:51.179Z,15.82
2018-06-28T03:43:51.157Z,15.76
2018-06-28T03:44:51.169Z,15.84
2018-06-28T03:45:51.149Z,15.82
2018-06-28T03:46:51.136Z,15.83
2018-06-28T03:47:51.106Z,15.76
2018-06-28T03:48:51.093Z,15.76
2018-06-28T03:49:51.102Z,15.89
2018-06-28T03:50:51.065Z,15.93
2018-06-28T03:51:51.059Z,15.87
2018-06-28T03:52:51.036Z,15.97
2018-06-28T03:53:51.047Z,16.04
2018-06-28T03:54:51.014Z,16.08
2018-06-28T03:55:51.022Z,16.14
2018-06-28T03:56:50.999Z,16.15
2018-06-28T03:57:50.976Z,16.20
2018-06-28T03:58:50.973Z,16.23
2018-06-28T03:59:50.947Z,16.17
2018-06-28T04:01:11.947Z,16.14
2018-06-28T04:01:50.925Z,16.25
2018-06-28T04:02:50.915Z,16.14
2018-06-28T04:03:50.896Z,16.15
2018-06-28T04:04:50.878Z,16.21
2018-06-28T04:05:50.867Z,16.20
2018-06-28T04:06:50.874Z,16.27
2018-06-28T04:07:50.846Z,16.34
2018-06-28T04:08:50.841Z,16.27
2018-06-28T04:09:50.811Z,16.27
2018-06-28T04:10:50.807Z,16.35
2018-06-28T04:11:50.806Z,16.35
2018-06-28T04:12:50.775Z,16.30
2018-06-28T04:13:50.765Z,16.34
2018-06-28T04:14:50.751Z,16.34
2018-06-28T04:15:50.734Z,16.24
2018-06-28T04:16:50.742Z,16.39
2018-06-28T04:17:50.708Z,16.34
2018-06-28T04:18:50.695Z,16.34
2018-06-28T04:19:50.693Z,16.38
2018-06-28T04:20:50.667Z,16.39
2018-06-28T04:21:50.678Z,16.28
2018-06-28T04:22:50.663Z,16.34
2018-06-28T04:23:50.634Z,16.35
2018-06-28T04:24:50.617Z,16.41
2018-06-28T04:25:50.612Z,16.38
2018-06-28T04:26:50.601Z,16.31
2018-06-28T04:27:50.588Z,16.38
2018-06-28T04:28:50.561Z,16.34
2018-06-28T04:29:50.559Z,16.34
2018-06-28T04:30:50.542Z,16.41
2018-06-28T04:31:50.523Z,16.31
2018-06-28T04:32:50.543Z,16.43
2018-06-28T04:33:50.500Z,16.43
2018-06-28T04:34:50.486Z,16.50
2018-06-28T04:35:50.475Z,16.58
2018-06-28T04:36:50.456Z,16.66
2018-06-28T04:37:50.455Z,16.75
2018-06-28T04:38:50.447Z,16.91
2018-06-28T04:39:50.415Z,16.96
2018-06-28T04:40:50.421Z,17.08
2018-06-28T04:41:50.392Z,17.19
2018-06-28T04:42:50.390Z,17.26
2018-06-28T04:43:50.368Z,17.46
2018-06-28T04:44:50.371Z,17.51
2018-06-28T04:45:50.348Z,17.77
2018-06-28T04:46:50.331Z,17.95
2018-06-28T04:47:50.312Z,18.12
2018-06-28T04:48:50.311Z,18.41
2018-06-28T04:49:50.333Z,18.55
2018-06-28T04:50:50.279Z,18.78
2018-06-28T04:51:50.261Z,19.07
2018-06-28T04:52:50.286Z,19.29
2018-06-28T04:53:50.255Z,19.54
2018-06-28T04:54:50.263Z,19.63
2018-06-28T04:55:50.222Z,19.77
2018-06-28T04:56:50.665Z,19.98
2018-06-28T04:57:50.204Z,19.99
2018-06-28T04:58:50.209Z,20.18
2018-06-28T04:59:50.192Z,20.23
2018-06-28T05:00:50.155Z,20.24
2018-06-28T05:01:50.142Z,20.14
2018-06-28T05:02:50.152Z,20.03
2018-06-28T05:03:50.122Z,19.95
2018-06-28T05:04:50.110Z,20.10
2018-06-28T05:05:50.099Z,19.96
2018-06-28T05:06:50.103Z,19.98
2018-06-28T05:07:50.072Z,19.99
2018-06-28T05:08:50.064Z,19.94
2018-06-28T05:09:50.049Z,19.86
2018-06-28T05:10:50.052Z,19.80
2018-06-28T05:11:50.045Z,19.81
2018-06-28T05:12:50.021Z,19.81
2018-06-28T05:13:50.006Z,19.94
2018-06-28T05:14:50.006Z,20.01
2018-06-28T05:15:49.981Z,20.06
2018-06-28T05:16:50.004Z,20.01
2018-06-28T05:17:49.962Z,20.05
2018-06-28T05:18:49.955Z,20.08
2018-06-28T05:19:49.944Z,20.02
2018-06-28T05:20:49.937Z,20.05
2018-06-28T05:21:49.940Z,19.94
2018-06-28T05:22:49.904Z,19.94
2018-06-28T05:23:49.899Z,19.95
2018-06-28T05:24:49.898Z,19.81
2018-06-28T05:25:49.886Z,19.73
2018-06-28T05:26:49.866Z,19.76
2018-06-28T05:27:49.888Z,19.77
2018-06-28T05:28:49.840Z,19.76
2018-06-28T05:29:49.831Z,19.71
2018-06-28T05:30:49.821Z,19.61
2018-06-28T05:31:49.809Z,19.56
2018-06-28T05:32:49.805Z,19.50
2018-06-28T05:33:49.800Z,19.40
2018-06-28T05:34:49.785Z,19.54
2018-06-28T05:35:49.761Z,19.54
2018-06-28T05:36:49.755Z,19.62
2018-06-28T05:37:49.745Z,19.59
2018-06-28T05:38:49.752Z,19.71
2018-06-28T05:39:49.719Z,19.65
2018-06-28T05:40:49.711Z,19.78
2018-06-28T05:41:49.698Z,19.78
2018-06-28T05:42:49.700Z,19.78
2018-06-28T05:43:49.678Z,19.94
2018-06-28T05:45:10.688Z,19.94
2018-06-28T05:45:49.653Z,20.10
2018-06-28T05:46:49.642Z,20.11
2018-06-28T05:47:49.639Z,20.31
2018-06-28T05:48:49.639Z,20.47
2018-06-28T05:49:49.629Z,20.54
2018-06-28T05:50:49.613Z,20.73
2018-06-28T05:51:49.607Z,20.79
2018-06-28T05:52:49.599Z,20.87
2018-06-28T05:53:49.572Z,21.01
2018-06-28T05:54:49.560Z,21.03
2018-06-28T05:55:49.564Z,21.22
2018-06-28T05:56:49.547Z,21.31
2018-06-28T05:57:49.527Z,21.37
2018-06-28T05:58:49.514Z,21.40
2018-06-28T05:59:49.515Z,21.31
2018-06-28T06:00:49.527Z,21.50
2018-06-28T06:01:49.484Z,21.47
2018-06-28T06:02:49.518Z,21.54
2018-06-28T06:03:49.460Z,21.56
2018-06-28T06:04:49.451Z,21.61
2018-06-28T06:05:49.440Z,21.65
2018-06-28T06:06:49.446Z,21.74
2018-06-28T06:07:49.413Z,21.74
2018-06-28T06:08:49.408Z,21.75
2018-06-28T06:09:49.394Z,21.75
2018-06-28T06:10:49.388Z,21.69
2018-06-28T06:11:49.388Z,21.79
2018-06-28T06:12:49.392Z,21.82
2018-06-28T06:13:49.352Z,21.80
2018-06-28T06:14:49.342Z,21.94
2018-06-28T06:15:49.336Z,21.90
2018-06-28T06:16:49.357Z,21.92
2018-06-28T06:17:49.313Z,22.00
2018-06-28T06:18:49.300Z,22.03
2018-06-28T06:19:49.292Z,21.91
2018-06-28T06:20:49.291Z,21.96
2018-06-28T06:21:49.269Z,21.98
2018-06-28T06:22:49.277Z,21.92
2018-06-28T06:23:49.249Z,21.88
2018-06-28T06:24:49.235Z,21.69
2018-06-28T06:25:49.230Z,21.68
2018-06-28T06:26:49.210Z,21.61
2018-06-28T06:27:49.228Z,21.69
2018-06-28T06:28:49.189Z,21.72
2018-06-28T06:29:49.204Z,21.72
2018-06-28T06:30:49.181Z,21.88
2018-06-28T06:31:49.179Z,22.03
2018-06-28T06:32:49.149Z,21.99
2018-06-28T06:33:49.144Z,21.92
2018-06-28T06:34:49.133Z,21.90
2018-06-28T06:35:49.127Z,21.94
2018-06-28T06:36:49.134Z,21.92
2018-06-28T06:37:49.121Z,21.96
2018-06-28T06:38:49.085Z,22.17
2018-06-28T06:39:49.076Z,22.43
2018-06-28T06:40:49.089Z,22.64
2018-06-28T06:41:49.064Z,22.65
2018-06-28T06:42:49.045Z,22.70
2018-06-28T06:44:10.052Z,22.70
2018-06-28T06:44:49.028Z,22.54
2018-06-28T06:45:49.015Z,22.36
2018-06-28T06:46:49.004Z,22.21
2018-06-28T06:47:49.009Z,22.21
2018-06-28T06:48:49.015Z,22.33
2018-06-28T06:49:56.340Z,22.33
2018-06-28T06:50:48.974Z,22.45
2018-06-28T06:51:48.958Z,22.49
2018-06-28T06:52:48.944Z,22.39
2018-06-28T06:53:48.960Z,22.39
2018-06-28T06:54:48.925Z,22.36
2018-06-28T06:55:48.910Z,22.31
2018-06-28T06:56:48.899Z,22.35
2018-06-28T06:57:49.646Z,22.36
2018-06-28T06:58:48.894Z,22.40
2018-06-28T06:59:48.881Z,22.43
2018-06-28T07:00:48.865Z,22.54
2018-06-28T07:01:48.849Z,22.55
2018-06-28T07:02:48.845Z,22.55
2018-06-28T07:03:49.605Z,22.46
2018-06-28T07:04:48.819Z,22.64
2018-06-28T07:05:48.816Z,22.76
2018-06-28T07:06:48.803Z,22.82
2018-06-28T07:07:48.792Z,23.10
2018-06-28T07:08:48.794Z,23.10
2018-06-28T07:09:48.787Z,23.20
2018-06-28T07:10:48.761Z,23.20
2018-06-28T07:11:48.747Z,23.25
2018-06-28T07:12:48.740Z,23.42
2018-06-28T07:13:48.761Z,23.33
2018-06-28T07:14:48.718Z,23.42
2018-06-28T07:15:48.701Z,23.51
2018-06-28T07:16:50.619Z,23.54
2018-06-28T07:17:49.620Z,23.54
2018-06-28T07:18:49.182Z,23.65
2018-06-28T07:19:51.202Z,23.73
2018-06-28T07:20:48.654Z,23.80
2018-06-28T07:21:48.647Z,23.73
2018-06-28T07:22:48.712Z,23.65
2018-06-28T07:23:48.624Z,23.68
2018-06-28T07:24:48.632Z,23.83
2018-06-28T07:25:48.609Z,23.80
2018-06-28T07:26:48.597Z,23.97
2018-06-28T07:27:48.596Z,24.06
2018-06-28T07:28:48.574Z,24.09
2018-06-28T07:29:48.652Z,24.08
2018-06-28T07:30:48.565Z,24.13
2018-06-28T07:31:48.548Z,24.27
2018-06-28T07:32:48.554Z,24.31
2018-06-28T07:33:48.528Z,24.46
2018-06-28T07:34:48.530Z,24.39
2018-06-28T07:35:48.524Z,24.28
2018-06-28T07:36:49.154Z,24.42
2018-06-28T07:37:48.488Z,24.34
2018-06-28T07:38:48.485Z,24.46
2018-06-28T07:39:48.468Z,24.42
2018-06-28T07:40:48.475Z,24.55
2018-06-28T07:41:48.462Z,24.69
2018-06-28T07:42:48.454Z,24.84
2018-06-28T07:43:48.432Z,24.90
2018-06-28T07:44:48.426Z,24.93
2018-06-28T07:45:48.440Z,24.99
2018-06-28T07:46:48.471Z,25.06
2018-06-28T07:47:48.389Z,25.09
2018-06-28T07:48:48.409Z,25.21
2018-06-28T07:49:48.368Z,25.14
2018-06-28T07:50:48.382Z,25.14
2018-06-28T07:51:48.370Z,25.18
2018-06-28T07:52:48.352Z,25.28
2018-06-28T07:53:48.345Z,25.25
2018-06-28T07:54:48.340Z,25.35
2018-06-28T07:55:48.319Z,25.43
2018-06-28T07:56:48.325Z,25.40
2018-06-28T07:57:48.321Z,25.45
2018-06-28T07:58:48.288Z,25.42
2018-06-28T07:59:50.125Z,25.32
2018-06-28T08:00:48.286Z,25.33
2018-06-28T08:02:09.277Z,25.38
2018-06-28T08:02:48.300Z,25.33
2018-06-28T08:03:48.242Z,25.46
2018-06-28T08:04:48.233Z,25.67
2018-06-28T08:05:48.249Z,25.65
2018-06-28T08:06:48.215Z,25.70
2018-06-28T08:07:48.204Z,25.79
2018-06-28T08:08:48.195Z,25.79
2018-06-28T08:09:48.204Z,25.91
2018-06-28T08:10:48.186Z,25.98
2018-06-28T08:11:48.188Z,26.07
2018-06-28T08:12:48.179Z,25.97
2018-06-28T08:13:48.150Z,25.87
2018-06-28T08:14:48.141Z,25.83
2018-06-28T08:15:48.629Z,25.87
2018-06-28T08:16:48.140Z,25.99
2018-06-28T08:17:48.111Z,26.06
2018-06-28T08:18:48.100Z,26.07
2018-06-28T08:19:48.090Z,26.07
2018-06-28T08:20:48.099Z,26.23
2018-06-28T08:21:48.072Z,26.25
2018-06-28T08:22:48.097Z,26.21
2018-06-28T08:23:48.058Z,26.25
2018-06-28T08:24:48.049Z,26.28
2018-06-28T08:25:48.299Z,26.36
2018-06-28T08:26:48.120Z,26.39
2018-06-28T08:27:48.036Z,26.55
2018-06-28T08:28:48.019Z,26.70
2018-06-28T08:29:48.672Z,26.76
2018-06-28T08:30:48.032Z,26.75
2018-06-28T08:31:47.990Z,26.89
2018-06-28T08:32:47.977Z,26.85
2018-06-28T08:33:47.987Z,26.87
2018-06-28T08:34:47.967Z,26.97
2018-06-28T08:35:48.741Z,26.88
2018-06-28T08:36:47.977Z,26.89
2018-06-28T08:37:47.961Z,26.88
2018-06-28T08:38:47.926Z,26.91
2018-06-28T08:39:47.911Z,27.03
2018-06-28T08:40:47.922Z,27.02
2018-06-28T08:41:47.893Z,27.10
2018-06-28T08:42:47.911Z,27.18
2018-06-28T08:43:47.891Z,27.31
2018-06-28T08:44:47.875Z,27.36
2018-06-28T08:45:48.137Z,27.44
2018-06-28T08:46:47.857Z,27.50
2018-06-28T08:47:47.842Z,27.63
2018-06-28T08:48:47.855Z,27.67
2018-06-28T08:49:47.839Z,27.87
2018-06-28T08:50:47.830Z,27.92
2018-06-28T08:51:47.810Z,28.06
2018-06-28T08:52:47.804Z,28.19
2018-06-28T08:53:47.812Z,28.46
2018-06-28T08:54:47.791Z,28.56
2018-06-28T08:55:47.774Z,28.71
2018-06-28T08:56:47.766Z,28.89
2018-06-28T08:57:47.836Z,29.11
2018-06-28T08:58:47.807Z,29.23
2018-06-28T08:59:47.742Z,29.43
2018-06-28T09:00:47.739Z,29.76
2018-06-28T09:01:47.754Z,29.94
2018-06-28T09:02:47.721Z,30.11
2018-06-28T09:03:47.716Z,30.39
2018-06-28T09:04:47.727Z,30.70
2018-06-28T09:05:47.708Z,30.86
2018-06-28T09:06:47.688Z,30.97
2018-06-28T09:07:47.679Z,31.17
2018-06-28T09:08:47.672Z,31.20
2018-06-28T09:09:48.147Z,31.32
2018-06-28T09:10:47.672Z,31.04
2018-06-28T09:11:47.659Z,31.17
2018-06-28T09:12:47.690Z,31.26
2018-06-28T09:13:47.653Z,31.57
2018-06-28T09:14:47.636Z,31.91
2018-06-28T09:15:47.630Z,32.19
2018-06-28T09:16:47.615Z,32.21
2018-06-28T09:17:47.631Z,31.75
2018-06-28T09:18:47.590Z,31.89
2018-06-28T09:19:47.583Z,31.76
2018-06-28T09:20:47.596Z,32.08
2018-06-28T09:21:47.571Z,32.30
2018-06-28T09:22:47.632Z,32.47
2018-06-28T09:23:47.568Z,32.74
2018-06-28T09:24:47.551Z,33.06
2018-06-28T09:25:47.559Z,33.18
2018-06-28T09:26:47.541Z,33.11
2018-06-28T09:27:47.532Z,33.34
2018-06-28T09:28:47.526Z,33.39
2018-06-28T09:29:47.523Z,33.34
2018-06-28T09:30:47.528Z,33.44
2018-06-28T09:31:47.577Z,33.50
2018-06-28T09:32:47.532Z,33.14
2018-06-28T09:33:47.504Z,32.97
2018-06-28T09:34:47.504Z,33.15
2018-06-28T09:35:47.556Z,33.01
2018-06-28T09:36:47.506Z,33.31
2018-06-28T09:37:47.495Z,33.66
2018-06-28T09:38:47.494Z,33.79
2018-06-28T09:39:47.481Z,33.68
2018-06-28T09:40:47.484Z,33.65
2018-06-28T09:41:47.498Z,32.93
2018-06-28T09:42:47.493Z,32.47
2018-06-28T09:43:47.475Z,32.08
2018-06-28T09:44:48.161Z,32.23
2018-06-28T09:45:47.482Z,32.63
2018-06-28T09:46:47.491Z,32.70
2018-06-28T09:47:47.469Z,33.23
2018-06-28T09:48:48.229Z,33.34
2018-06-28T09:49:47.467Z,33.66
2018-06-28T09:50:48.165Z,34.02
2018-06-28T09:51:47.485Z,33.97
2018-06-28T09:52:47.482Z,33.94
2018-06-28T09:53:47.475Z,34.03
2018-06-28T09:54:47.509Z,33.63
2018-06-28T09:55:47.458Z,33.54
2018-06-28T09:56:47.471Z,33.49
2018-06-28T09:57:47.473Z,33.47
2018-06-28T09:58:47.465Z,33.82
2018-06-28T09:59:47.468Z,33.90
2018-06-28T10:00:47.460Z,34.13
2018-06-28T10:01:47.459Z,34.09
2018-06-28T10:02:47.462Z,34.19
2018-06-28T10:03:47.479Z,34.03
2018-06-28T10:04:47.460Z,33.90
2018-06-28T10:05:47.466Z,33.98
2018-06-28T10:06:47.500Z,34.31
2018-06-28T10:07:47.479Z,34.17
2018-06-28T10:08:47.485Z,34.08
2018-06-28T10:09:47.470Z,32.85
2018-06-28T10:10:47.468Z,32.44
2018-06-28T10:11:47.469Z,32.47
2018-06-28T10:12:47.482Z,32.78
2018-06-28T10:13:47.485Z,33.04
2018-06-28T10:14:47.553Z,32.89
2018-06-28T10:15:47.504Z,33.14
2018-06-28T10:16:47.475Z,33.50
2018-06-28T10:17:47.473Z,33.38
2018-06-28T10:18:47.489Z,33.35
2018-06-28T10:19:47.475Z,33.16
2018-06-28T10:20:47.473Z,33.15
2018-06-28T10:21:47.469Z,33.34
2018-06-28T10:22:47.475Z,33.19
2018-06-28T10:23:47.485Z,33.23
2018-06-28T10:24:47.471Z,33.15
2018-06-28T10:25:47.475Z,33.42
2018-06-28T10:26:47.482Z,33.60
2018-06-28T10:27:47.479Z,33.82
2018-06-28T10:28:47.495Z,34.03
2018-06-28T10:29:47.484Z,34.10
2018-06-28T10:30:47.488Z,34.17
2018-06-28T10:31:47.484Z,34.08
2018-06-28T10:32:47.496Z,34.02
2018-06-28T10:33:47.488Z,34.06
2018-06-28T10:34:47.504Z,34.03
2018-06-28T10:35:47.504Z,33.84
2018-06-28T10:36:47.490Z,33.16
2018-06-28T10:37:47.496Z,32.87
2018-06-28T10:38:47.493Z,32.96
2018-06-28T10:39:47.504Z,33.47
2018-06-28T10:40:47.514Z,33.66
2018-06-28T10:41:47.501Z,34.02
2018-06-28T10:42:47.512Z,34.21
2018-06-28T10:43:47.604Z,33.97
2018-06-28T10:44:47.499Z,33.97
2018-06-28T10:45:47.520Z,34.17
2018-06-28T10:46:47.511Z,33.91
2018-06-28T10:47:47.506Z,33.79
2018-06-28T10:48:47.509Z,33.86
2018-06-28T10:49:47.641Z,33.75
2018-06-28T10:50:47.534Z,33.59
2018-06-28T10:51:47.515Z,33.50
2018-06-28T10:52:47.524Z,33.15
2018-06-28T10:53:47.514Z,33.15
2018-06-28T10:54:47.531Z,33.06
2018-06-28T10:55:47.523Z,33.06
2018-06-28T10:56:47.549Z,32.74
2018-06-28T10:57:47.530Z,32.87
2018-06-28T10:58:47.528Z,33.19
2018-06-28T10:59:47.550Z,33.35
2018-06-28T11:00:47.550Z,33.68
2018-06-28T11:01:47.593Z,33.81
2018-06-28T11:02:47.531Z,33.97
2018-06-28T11:03:47.549Z,33.93
2018-06-28T11:04:47.534Z,34.08
2018-06-28T11:05:47.549Z,34.28
2018-06-28T11:06:47.543Z,34.50
2018-06-28T11:07:47.560Z,34.16
2018-06-28T11:08:47.568Z,34.28
2018-06-28T11:09:47.592Z,34.24
2018-06-28T11:10:47.552Z,34.09
2018-06-28T11:11:47.557Z,34.22
2018-06-28T11:12:47.564Z,34.17
2018-06-28T11:13:47.566Z,34.13
2018-06-28T11:14:47.560Z,34.37
2018-06-28T11:15:47.614Z,34.73
2018-06-28T11:16:47.566Z,34.91
2018-06-28T11:17:47.566Z,34.56
2018-06-28T11:18:47.586Z,33.49
2018-06-28T11:19:47.573Z,33.54
2018-06-28T11:20:47.579Z,33.75
2018-06-28T11:21:47.597Z,32.89
2018-06-28T11:22:47.583Z,32.94
2018-06-28T11:23:47.602Z,32.74
2018-06-28T11:24:47.586Z,32.57
2018-06-28T11:25:47.595Z,32.93
2018-06-28T11:26:47.590Z,32.93
2018-06-28T11:27:47.595Z,32.75
2018-06-28T11:28:47.659Z,32.93
2018-06-28T11:29:47.650Z,33.11
2018-06-28T11:30:47.601Z,33.28
2018-06-28T11:31:47.614Z,33.66
2018-06-28T11:32:47.608Z,33.57
2018-06-28T11:33:47.603Z,33.81
2018-06-28T11:34:47.612Z,34.02
2018-06-28T11:35:47.615Z,33.98
2018-06-28T11:36:47.634Z,34.06
2018-06-28T11:37:47.614Z,34.21
2018-06-28T11:38:47.620Z,34.28
2018-06-28T11:39:49.943Z,34.06
2018-06-28T11:40:48.262Z,33.82
2018-06-28T11:41:47.626Z,33.61
2018-06-28T11:42:47.637Z,33.38
2018-06-28T11:43:47.640Z,33.23
2018-06-28T11:44:47.655Z,33.15
2018-06-28T11:45:47.643Z,33.15
2018-06-28T11:46:47.633Z,33.37
2018-06-28T11:47:47.665Z,33.57
2018-06-28T11:48:47.665Z,33.51
2018-06-28T11:49:47.655Z,33.50
2018-06-28T11:50:47.642Z,33.59
2018-06-28T11:51:47.646Z,33.66
2018-06-28T11:52:47.646Z,33.39
2018-06-28T11:53:47.665Z,32.70
2018-06-28T11:54:47.650Z,32.59
2018-06-28T11:55:47.684Z,32.79
2018-06-28T11:56:47.662Z,32.77
2018-06-28T11:57:47.662Z,32.60
2018-06-28T11:58:47.675Z,32.77
2018-06-28T11:59:47.661Z,32.92
2018-06-28T12:00:47.679Z,33.16
2018-06-28T12:01:47.672Z,33.21
2018-06-28T12:02:47.678Z,33.18
2018-06-28T12:03:47.665Z,33.31
2018-06-28T12:04:47.688Z,33.45
2018-06-28T12:05:47.683Z,33.23
2018-06-28T12:06:47.678Z,33.34
2018-06-28T12:07:47.672Z,33.59
2018-06-28T12:08:47.675Z,33.15
2018-06-28T12:09:47.694Z,32.89
2018-06-28T12:10:47.685Z,33.28
2018-06-28T12:11:47.693Z,33.16
2018-06-28T12:12:47.679Z,33.37
2018-06-28T12:13:47.868Z,33.28
2018-06-28T12:14:47.682Z,32.97
2018-06-28T12:15:47.686Z,33.18
2018-06-28T12:16:47.712Z,33.37
2018-06-28T12:17:47.696Z,33.50
2018-06-28T12:18:47.711Z,33.51
2018-06-28T12:19:47.710Z,33.44
2018-06-28T12:20:47.717Z,33.16
2018-06-28T12:21:47.701Z,32.99
2018-06-28T12:22:47.736Z,33.01
2018-06-28T12:23:47.707Z,33.00
2018-06-28T12:24:47.707Z,32.99
2018-06-28T12:25:47.708Z,32.94
2018-06-28T12:26:47.711Z,33.00
2018-06-28T12:27:47.715Z,32.35
2018-06-28T12:28:47.724Z,31.89
2018-06-28T12:29:47.746Z,32.06
2018-06-28T12:30:47.713Z,32.22
2018-06-28T12:31:47.725Z,32.23
2018-06-28T12:32:47.735Z,32.47
2018-06-28T12:33:47.725Z,32.62
2018-06-28T12:34:47.735Z,32.74
2018-06-28T12:35:47.717Z,32.96
2018-06-28T12:36:47.727Z,33.14
2018-06-28T12:37:47.741Z,33.15
2018-06-28T12:38:47.746Z,33.28
2018-06-28T12:39:47.727Z,33.23
2018-06-28T12:40:47.727Z,33.47
2018-06-28T12:41:47.727Z,33.15
2018-06-28T12:42:47.769Z,33.14
2018-06-28T12:43:47.746Z,33.21
2018-06-28T12:44:47.730Z,33.32
2018-06-28T12:45:47.746Z,33.41
2018-06-28T12:46:47.736Z,33.61
2018-06-28T12:47:47.749Z,33.61
2018-06-28T12:48:47.738Z,33.66
2018-06-28T12:49:47.747Z,33.79
2018-06-28T12:50:47.752Z,33.86
2018-06-28T12:51:47.741Z,33.97
2018-06-28T12:52:47.745Z,33.68